Carmacks, Canada
Current Conditions -  °F | °C
As of 3:00 PM on Friday 24 Oct 2014 (Local Time) from CZFA Reporting Station
Broken Clouds Broken Clouds  
Wind Chill: 36°   Ceiling: 5700
Heat Index: 36°   Visibility: 30mi
Dew Point: 32°   Wind: 0mph
Humidity: 87%   Direction: NA
Pressure: 29.74"   Gusts: NA
Location:  62.1°N, 136.32°W
Report Text: CZFA 242200Z 00000KT 30SM FEW015 BKN057 02/00 A2974 RMK SF1SC6 SF TR CLIMAT 1.8/-1.5/TRCM/TRMWE LAST STFD OBS/NEXT 251400UTCSLP106
Loading
Personal Weather Stations






























Interactive Weather Map
Tropical Storm Tracking
New forecast layout! Learn more

10-Day Weather Forecast

Advertisements
Track Severe Weather on mobile